Redwood City, CA (94064)

02:21 PM PDT die 21o October, anno 2017 (GMT -0700)
Sterling Heights | | Change Station

Elev 134 ft 37.46 °N, 122.25 °W | Updated 25 seconds ago

Partly Cloudy
Partialiter Nubila
68.2 °F
Feels Like 68.2 °F
N
3.1
Ventus Variabilis Ventus from Magis Aquilo quam Eurus
Gusts 5.0 mph

Hodie
High -- | Low -- °F
--% Chance of Precip.
Yesterday
High -- | Low -- °F
Precip. -- in
Pressio 30.25 in
Visibilitas 10.0 milia passuum
Clouds Few 20000 ft
Frigus in quo Ros apparet 41.5 °F
Umor 38%
Rainfall 0.00 in
Snow Depth Not available.
7:23 AM 6:23 PM
Waxing Crescent, 4% visible
METAR KSQL 212100Z 32006KT 10SM FEW200 19/05 A3025
Pressio 30.25 in
Visibilitas 10.0 milia passuum
Clouds Few 20000 ft
Frigus in quo Ros apparet 41.5 °F
Umor 38%
Rainfall 0.00 in
Snow Depth Not available.
7:23 AM 6:23 PM
Waxing Crescent, 4% visible
METAR KSQL 212100Z 32006KT 10SM FEW200 19/05 A3025

Get Severe Weather Alerts

Thanks for signing up!

Be on the lookout for a verification email in your inbox.

You'll start receiving the daily forecast at 6 AM.

×

10-Day Weather Forecast

Almanac

Astronomy

Oct. 21, 2017 Rise Set
Actual Time
Civil Twilight
Nautical Twilight
Astronomical Twilight
Moon
Length Of Visible Light
Length of Day
Tomorrow will be .
, % of the Moon is Illuminated

Today's Extremes

State Highs State Lows

Community

WunderPhotos

Category 6

Welcome to Category 6. This is the collective home for Weather Underground's featured writeups by Dr. Jeff Masters (right), Bob Henson (left), Chris Burt, and other regular contributors.

Nearby

Air Quality

  Air Quality AQ Index Pollutant
Not available.

Snow Depth

Station Depth Elevation

Earthquake Activity

City Distance Mag. Time & Date
Minimum magnitude displayed is 2.5.

Coastal Water Temperatures

Locus Calor

Stations

Nearby Weather Stations

Station Location Temp Frigus Venti Frigus in quo Ros apparet Umor Ventus Precip. Elev Renovata Type
                   

Watches & Warnings

There are currently no watches in effect.